Time;durP1;ratioP1;P1;durP2;ratioP2;P2;SDS_P1;SDS_P2;PMS_P1;PMS_P2;Temp;Humidity;BMP_temperature;BMP_pressure;BME280_temperature;BME280_humidity;BME280_pressure;Samples;Min_cycle;Max_cycle;Signal;HPM_P1;HPM_P2
2023/12/24 00:03:06;;;;;;;19.85;3.47;;;10.50;99.90;;;;;;10551876;27;20978;-65
2023/12/24 00:08:08;;;;;;;25.10;3.13;;;10.30;99.90;;;;;;10562682;27;20533;-65
2023/12/24 00:13:11;;;;;;;22.03;4.10;;;10.50;99.90;;;;;;10560514;27;20092;-65
2023/12/24 00:18:13;;;;;;;33.05;5.05;;;10.40;99.90;;;;;;10554486;28;20063;-64
2023/12/24 00:23:16;;;;;;;35.28;3.72;;;10.30;99.90;;;;;;10546740;28;20138;-66
2023/12/24 00:28:20;;;;;;;25.80;3.10;;;10.30;99.90;;;;;;10558373;27;20069;-64
2023/12/24 00:33:22;;;;;;;30.38;4.88;;;10.40;99.90;;;;;;10563167;27;20608;-64
2023/12/24 00:38:24;;;;;;;34.20;4.33;;;10.30;99.90;;;;;;10561808;27;20047;-66
2023/12/24 00:43:28;;;;;;;37.30;4.32;;;10.40;99.90;;;;;;10563290;27;20055;-65
2023/12/24 00:48:30;;;;;;;26.10;4.85;;;10.40;99.90;;;;;;10557044;27;20670;-67
2023/12/24 00:53:32;;;;;;;29.60;5.55;;;10.30;99.90;;;;;;10565901;27;20144;-65
2023/12/24 00:58:36;;;;;;;28.20;4.00;;;10.30;99.90;;;;;;10564202;27;20047;-64
2023/12/24 01:03:38;;;;;;;36.25;4.68;;;10.40;99.90;;;;;;10560262;27;20489;-65
2023/12/24 01:08:40;;;;;;;31.63;4.90;;;10.40;99.90;;;;;;10560858;27;20046;-65
2023/12/24 01:13:43;;;;;;;31.88;4.90;;;10.20;99.90;;;;;;10553886;27;20055;-66
2023/12/24 01:18:47;;;;;;;0.63;0.63;;;10.20;99.90;;;;;;10551101;27;20059;-67
2023/12/24 01:23:49;;;;;;;0.25;0.25;;;10.10;99.90;;;;;;10560023;27;20395;-65
2023/12/24 01:28:53;;;;;;;0.10;0.10;;;10.20;99.90;;;;;;10561159;27;20102;-66
2023/12/24 01:33:56;;;;;;;0.65;0.65;;;10.00;99.90;;;;;;10560867;27;20422;-67
2023/12/24 01:38:59;;;;;;;0.93;0.55;;;10.10;99.90;;;;;;10555200;27;20051;-65
2023/12/24 01:44:03;;;;;;;0.10;0.10;;;10.30;99.90;;;;;;10553273;27;20051;-66
2023/12/24 01:49:05;;;;;;;1.25;1.17;;;10.20;99.90;;;;;;10562600;27;20478;-65
2023/12/24 01:54:08;;;;;;;0.90;0.90;;;10.10;99.90;;;;;;10561508;27;20128;-66
2023/12/24 01:59:12;;;;;;;0.10;0.10;;;10.20;99.90;;;;;;10561053;27;20161;-67
2023/12/24 02:04:16;;;;;;;0.77;0.68;;;10.10;99.90;;;;;;10555265;27;20207;-66
2023/12/24 02:09:18;;;;;;;0.50;0.50;;;10.00;99.90;;;;;;10558594;27;20048;-65
2023/12/24 02:14:21;;;;;;;8.07;1.02;;;10.00;99.90;;;;;;10560919;27;22453;-66
2023/12/24 02:19:24;;;;;;;15.38;3.63;;;10.10;99.90;;;;;;10558691;27;20550;-66
2023/12/24 02:24:27;;;;;;;0.10;0.10;;;10.10;99.90;;;;;;10560937;27;20051;-67
2023/12/24 02:29:34;;;;;;;20.58;3.00;;;10.10;99.90;;;;;;10561218;27;20046;-67
2023/12/24 02:34:38;;;;;;;25.10;3.60;;;10.00;99.90;;;;;;10562851;27;20063;-66
2023/12/24 02:39:42;;;;;;;28.75;5.22;;;10.00;99.90;;;;;;10559462;27;20050;-68
2023/12/24 02:44:44;;;;;;;0.20;0.20;;;10.20;99.90;;;;;;10554648;27;20074;-66
2023/12/24 02:49:47;;;;;;;52.30;3.45;;;10.10;99.90;;;;;;10563566;27;20872;-66
2023/12/24 02:54:51;;;;;;;47.33;8.03;;;10.20;99.90;;;;;;10558011;27;20055;-65
2023/12/24 02:59:54;;;;;;;55.15;6.13;;;10.10;99.90;;;;;;10557465;27;20051;-66
2023/12/24 03:04:56;;;;;;;11.20;2.05;;;10.10;99.90;;;;;;10558633;27;20054;-65
2023/12/24 03:10:00;;;;;;;48.00;8.98;;;10.20;99.90;;;;;;10564912;27;20682;-66
2023/12/24 03:15:02;;;;;;;0.20;0.20;;;10.30;99.90;;;;;;10556778;27;20048;-66
2023/12/24 03:20:05;;;;;;;1.20;1.10;;;10.20;99.90;;;;;;10560755;27;20122;-65
2023/12/24 03:25:09;;;;;;;0.43;0.43;;;10.20;99.90;;;;;;10574081;27;21057;-66
2023/12/24 03:30:12;;;;;;;0.10;0.10;;;10.10;99.90;;;;;;10565062;27;20051;-65
2023/12/24 03:35:15;;;;;;;0.10;0.10;;;10.40;99.90;;;;;;10556671;27;20063;-65
2023/12/24 03:40:18;;;;;;;0.10;0.10;;;10.30;99.90;;;;;;10569971;27;20043;-65
2023/12/24 03:45:20;;;;;;;0.55;0.55;;;10.30;99.90;;;;;;10572293;27;20298;-64
2023/12/24 03:50:25;;;;;;;0.10;0.10;;;10.30;99.90;;;;;;10582289;27;20052;-65
2023/12/24 03:55:29;;;;;;;0.10;0.10;;;10.20;99.90;;;;;;10556390;27;20423;-66
2023/12/24 04:15:32;;;;;;;1.33;0.82;;;10.30;99.90;;;;;;10589382;27;20115;-65
2023/12/24 04:20:34;;;;;;;0.25;0.25;;;10.40;99.90;;;;;;10612591;27;20039;-65
2023/12/24 04:25:36;;;;;;;0.20;0.20;;;10.30;99.90;;;;;;10612146;27;20414;-66
2023/12/24 04:30:40;;;;;;;0.10;0.10;;;10.30;99.90;;;;;;10612520;27;20288;-67
2023/12/24 04:35:44;;;;;;;0.55;0.55;;;10.30;99.90;;;;;;10612513;27;20528;-67
2023/12/24 04:40:50;;;;;;;7.28;2.92;;;10.30;99.90;;;;;;10611211;27;20066;-65
2023/12/24 04:45:54;;;;;;;1.27;1.17;;;10.40;99.90;;;;;;10601485;27;20065;-67
2023/12/24 04:50:56;;;;;;;0.63;0.63;;;10.40;99.90;;;;;;10603713;27;20392;-65
2023/12/24 04:55:58;;;;;;;0.10;0.10;;;10.50;99.90;;;;;;10600843;27;20096;-64
2023/12/24 05:01:05;;;;;;;0.10;0.10;;;10.50;99.90;;;;;;10607309;27;20050;-66
2023/12/24 05:06:13;;;;;;;0.32;0.32;;;10.50;99.90;;;;;;10600680;27;20053;-65
2023/12/24 05:11:15;;;;;;;1.75;1.65;;;10.50;99.90;;;;;;10603800;27;20047;-65
2023/12/24 05:16:18;;;;;;;20.67;7.13;;;10.60;99.90;;;;;;10602669;27;20145;-66
2023/12/24 05:21:20;;;;;;;0.45;0.45;;;10.70;99.90;;;;;;10601114;27;20054;-66
2023/12/24 05:26:24;;;;;;;69.13;8.87;;;10.60;99.90;;;;;;10572939;27;20104;-66
2023/12/24 05:31:28;;;;;;;76.50;8.48;;;10.60;99.90;;;;;;10575429;27;20051;-65
2023/12/24 05:36:32;;;;;;;83.82;9.30;;;10.60;99.90;;;;;;10570880;27;20051;-64
2023/12/24 05:41:37;;;;;;;72.15;9.15;;;10.60;99.90;;;;;;10577925;27;20490;-65
2023/12/24 05:46:41;;;;;;;80.78;11.07;;;10.60;99.90;;;;;;10568359;27;20206;-66
2023/12/24 05:51:43;;;;;;;74.43;8.25;;;10.60;99.90;;;;;;10577511;27;20047;-67
2023/12/24 05:56:45;;;;;;;0.75;0.75;;;10.70;99.90;;;;;;10574341;27;20051;-66
2023/12/24 06:01:49;;;;;;;0.30;0.30;;;10.80;99.90;;;;;;10572715;27;20051;-65
2023/12/24 06:06:51;;;;;;;1.70;1.60;;;10.70;99.90;;;;;;10574053;27;20138;-67
2023/12/24 06:11:53;;;;;;;27.97;4.00;;;10.80;99.90;;;;;;10569975;27;20838;-66
2023/12/24 06:16:57;;;;;;;84.57;10.10;;;10.70;99.90;;;;;;10567342;27;20778;-67
2023/12/24 06:22:01;;;;;;;93.05;12.07;;;10.80;99.90;;;;;;10569416;27;20941;-66
2023/12/24 06:27:03;;;;;;;74.10;9.02;;;10.70;99.90;;;;;;10571691;27;20146;-66
2023/12/24 06:32:07;;;;;;;87.57;12.60;;;10.90;99.90;;;;;;10580637;27;20513;-67
2023/12/24 06:37:09;;;;;;;72.53;8.32;;;10.80;99.90;;;;;;10572785;27;20050;-65
2023/12/24 06:42:11;;;;;;;76.88;8.77;;;10.80;99.90;;;;;;10566241;27;20051;-65
2023/12/24 06:47:15;;;;;;;84.70;12.32;;;10.80;99.90;;;;;;10567090;27;20047;-66
2023/12/24 06:52:19;;;;;;;80.35;10.88;;;10.70;99.90;;;;;;10574430;27;20047;-66
2023/12/24 06:57:21;;;;;;;90.35;12.07;;;10.80;99.90;;;;;;10572988;27;20047;-66
2023/12/24 07:02:24;;;;;;;79.05;12.25;;;10.80;99.90;;;;;;10574203;27;20043;-67
2023/12/24 07:07:26;;;;;;;76.75;9.93;;;10.80;99.90;;;;;;10563926;27;20379;-65
2023/12/24 07:12:30;;;;;;;0.20;0.20;;;10.80;99.90;;;;;;10560969;27;20144;-67
2023/12/24 07:17:33;;;;;;;;;;;10.90;99.90;;;;;;10563761;27;20435;-67
2023/12/24 07:22:35;;;;;;;1.27;1.17;;;10.80;99.90;;;;;;10563969;27;19931;-67
2023/12/24 07:27:37;;;;;;;0.98;0.90;;;10.80;99.90;;;;;;10559957;27;20076;-67
2023/12/24 07:32:44;;;;;;;0.30;0.30;;;10.90;99.90;;;;;;10560429;27;20051;-66
2023/12/24 07:37:48;;;;;;;0.20;0.20;;;10.70;99.90;;;;;;10558362;27;20463;-67
2023/12/24 07:42:51;;;;;;;0.10;0.10;;;10.70;99.90;;;;;;10551948;27;20085;-71
2023/12/24 07:47:55;;;;;;;109.75;14.13;;;10.70;99.90;;;;;;10562033;27;20054;-68
2023/12/24 07:52:57;;;;;;;0.20;0.20;;;10.70;99.90;;;;;;10557550;27;20158;-68
2023/12/24 07:57:59;;;;;;;16.25;4.10;;;10.70;99.90;;;;;;10566169;27;20059;-67
2023/12/24 08:03:04;;;;;;;0.10;0.10;;;10.70;99.90;;;;;;10555480;27;20072;-67
2023/12/24 08:08:06;;;;;;;0.22;0.22;;;10.70;99.90;;;;;;10554077;27;20535;-67
2023/12/24 08:13:08;;;;;;;100.38;12.45;;;10.70;99.90;;;;;;10552666;28;20140;-68
2023/12/24 08:18:12;;;;;;;107.63;13.80;;;10.70;99.90;;;;;;10551107;28;20058;-68
2023/12/24 08:23:16;;;;;;;108.47;10.88;;;10.70;99.90;;;;;;10539253;28;20164;-67
2023/12/24 08:28:18;;;;;;;88.15;10.68;;;10.70;99.90;;;;;;10543606;28;20064;-68
2023/12/24 08:33:22;;;;;;;95.70;11.47;;;10.70;99.90;;;;;;10546256;28;20189;-66
2023/12/24 08:38:24;;;;;;;78.43;10.38;;;10.70;99.90;;;;;;10546328;28;20669;-67
2023/12/24 08:43:26;;;;;;;104.93;12.00;;;10.70;99.90;;;;;;10549262;28;20050;-67
2023/12/24 08:48:31;;;;;;;90.37;12.63;;;10.80;99.90;;;;;;10550469;28;20443;-68
2023/12/24 08:53:36;;;;;;;92.15;10.25;;;11.00;99.90;;;;;;10553076;28;20090;-67
2023/12/24 08:58:38;;;;;;;73.82;10.02;;;10.90;99.90;;;;;;10548496;27;20122;-67
2023/12/24 09:03:41;;;;;;;114.68;14.52;;;11.00;99.90;;;;;;10555821;27;20140;-67
2023/12/24 09:08:44;;;;;;;74.45;9.73;;;10.90;99.90;;;;;;10562729;27;20039;-66
2023/12/24 09:13:46;;;;;;;94.97;13.80;;;10.90;99.90;;;;;;10574548;27;20863;-65
2023/12/24 09:18:49;;;;;;;101.03;14.60;;;11.00;99.90;;;;;;10561006;27;20044;-66
2023/12/24 09:23:54;;;;;;;109.05;20.20;;;11.10;99.90;;;;;;10562330;27;20070;-65
2023/12/24 09:29:03;;;;;;;129.68;19.50;;;11.00;99.90;;;;;;10559697;27;20565;-66
2023/12/24 09:34:07;;;;;;;116.55;14.70;;;11.00;99.90;;;;;;10558984;27;20055;-67
2023/12/24 09:39:10;;;;;;;88.35;14.85;;;11.10;99.90;;;;;;10560881;27;20051;-66
2023/12/24 09:44:12;;;;;;;104.80;11.63;;;11.10;99.90;;;;;;10556775;27;20047;-66
2023/12/24 09:49:16;;;;;;;98.43;13.30;;;11.10;99.90;;;;;;10554944;27;20473;-66
2023/12/24 09:54:18;;;;;;;114.63;14.98;;;11.00;99.90;;;;;;10557606;27;21072;-67
2023/12/24 09:59:20;;;;;;;66.55;7.63;;;11.00;99.90;;;;;;10558442;27;20074;-65
2023/12/24 10:04:26;;;;;;;7.30;1.30;;;11.00;99.90;;;;;;10551785;27;20099;-66
2023/12/24 10:09:43;;;;;;;0.10;0.10;;;11.00;99.90;;;;;;10553872;27;20414;-67
2023/12/24 10:14:55;;;;;;;1.55;1.40;;;11.10;99.90;;;;;;10548086;27;20058;-67
2023/12/24 10:19:59;;;;;;;23.10;4.40;;;11.10;99.90;;;;;;10552576;27;20174;-66
2023/12/24 10:25:03;;;;;;;0.10;0.10;;;11.10;99.90;;;;;;10553949;27;20047;-68
2023/12/24 10:30:18;;;;;;;47.78;5.88;;;11.00;99.90;;;;;;10554154;27;20054;-66
2023/12/24 10:35:26;;;;;;;23.85;3.70;;;11.00;99.90;;;;;;10548152;27;20524;-66
2023/12/24 10:40:33;;;;;;;0.50;0.50;;;11.00;99.90;;;;;;10548001;27;20470;-66
2023/12/24 10:45:35;;;;;;;2.95;1.75;;;10.90;99.90;;;;;;10551946;27;20051;-67
2023/12/24 10:50:39;;;;;;;13.32;1.95;;;11.00;99.90;;;;;;10553635;27;20059;-67
2023/12/24 10:55:47;;;;;;;67.85;13.55;;;11.00;99.90;;;;;;10548537;27;20052;-66
2023/12/24 11:00:50;;;;;;;103.60;17.63;;;11.00;99.90;;;;;;10543897;27;20862;-67
2023/12/24 11:05:54;;;;;;;84.68;14.38;;;11.00;99.90;;;;;;10543195;27;20116;-66
2023/12/24 11:10:56;;;;;;;176.35;27.45;;;11.10;99.90;;;;;;10549241;27;20054;-67
2023/12/24 11:15:59;;;;;;;148.30;22.75;;;11.10;99.90;;;;;;10544452;27;20115;-65
2023/12/24 11:21:04;;;;;;;161.00;27.52;;;11.10;99.90;;;;;;10551377;27;20048;-62
2023/12/24 11:26:31;;;;;;;160.52;22.75;;;11.20;99.90;;;;;;10546247;27;20169;-68
2023/12/24 11:31:33;;;;;;;164.93;25.35;;;11.20;99.90;;;;;;10546573;27;20044;-71
2023/12/24 11:36:57;;;;;;;140.18;19.83;;;11.10;99.90;;;;;;10544043;27;20062;-70
2023/12/24 11:41:59;;;;;;;157.93;21.08;;;11.10;99.90;;;;;;10549882;27;20043;-73
2023/12/24 11:47:02;;;;;;;164.17;22.13;;;11.20;99.90;;;;;;10546298;27;20056;-68
2023/12/24 11:52:06;;;;;;;169.18;28.10;;;11.30;99.90;;;;;;10548686;27;20052;-68
2023/12/24 11:57:08;;;;;;;115.68;15.80;;;11.20;99.90;;;;;;10546139;27;20099;-68
2023/12/24 12:02:10;;;;;;;166.70;21.52;;;11.10;99.90;;;;;;10541283;27;20042;-68
2023/12/24 12:07:13;;;;;;;123.20;16.63;;;11.20;99.90;;;;;;10542551;27;20055;-68
2023/12/24 12:12:15;;;;;;;130.18;16.88;;;11.40;99.90;;;;;;10544317;27;20055;-71
2023/12/24 12:17:17;;;;;;;141.27;17.08;;;11.20;99.90;;;;;;10546626;28;20171;-65
2023/12/24 12:22:21;;;;;;;126.40;18.75;;;11.50;99.90;;;;;;10549138;28;20055;-65
2023/12/24 12:27:24;;;;;;;88.22;12.18;;;11.40;99.90;;;;;;10554604;28;20935;-63
2023/12/24 12:32:28;;;;;;;20.35;4.03;;;11.50;99.90;;;;;;10559147;28;20383;-67
2023/12/24 12:37:54;;;;;;;50.33;8.85;;;11.30;99.90;;;;;;10573974;27;20051;-66
2023/12/24 12:42:56;;;;;;;1.55;1.40;;;11.20;99.90;;;;;;10558082;27;20043;-67
2023/12/24 12:48:01;;;;;;;33.70;5.43;;;11.30;99.90;;;;;;10564008;27;20052;-71
2023/12/24 12:53:05;;;;;;;0.30;0.30;;;11.20;99.90;;;;;;10558467;27;20050;-63
2023/12/24 12:58:15;;;;;;;132.30;18.85;;;11.30;99.90;;;;;;10556367;27;21064;-66
2023/12/24 13:03:16;;;;;;;107.47;16.85;;;11.40;99.90;;;;;;10552809;27;20054;-63
2023/12/24 13:08:21;;;;;;;0.10;0.10;;;11.20;99.90;;;;;;10557422;27;20615;-66
2023/12/24 13:13:24;;;;;;;3.60;2.15;;;11.30;99.90;;;;;;10553323;27;20592;-64
2023/12/24 13:18:28;;;;;;;0.10;0.10;;;11.20;99.90;;;;;;10555975;27;20157;-64
2023/12/24 13:23:31;;;;;;;13.32;3.50;;;11.30;99.90;;;;;;10550667;27;20059;-65
2023/12/24 13:28:33;;;;;;;0.43;0.43;;;11.20;99.90;;;;;;10554960;27;20058;-66
2023/12/24 13:33:35;;;;;;;0.23;0.23;;;11.30;99.90;;;;;;10545217;27;20139;-65
2023/12/24 13:38:39;;;;;;;32.13;6.88;;;11.10;99.90;;;;;;10555564;27;20483;-66
2023/12/24 13:43:41;;;;;;;106.70;18.58;;;11.30;99.90;;;;;;10551015;27;20085;-66
2023/12/24 13:48:43;;;;;;;53.67;8.35;;;11.30;99.90;;;;;;10552196;27;20506;-66
2023/12/24 13:53:47;;;;;;;0.68;0.68;;;11.30;99.90;;;;;;10553439;27;20055;-65
2023/12/24 13:58:49;;;;;;;1.70;0.80;;;11.10;99.90;;;;;;10547149;27;20772;-66
2023/12/24 14:03:51;;;;;;;53.65;10.95;;;11.10;99.90;;;;;;10549742;27;20078;-65
2023/12/24 14:08:58;;;;;;;90.28;14.63;;;11.10;99.90;;;;;;10554965;27;20499;-66
2023/12/24 14:14:01;;;;;;;76.22;11.25;;;11.10;99.90;;;;;;10558432;27;20051;-67
2023/12/24 14:19:03;;;;;;;0.65;0.65;;;11.10;99.90;;;;;;10555776;27;20051;-66
2023/12/24 14:24:07;;;;;;;27.52;4.15;;;11.10;99.90;;;;;;10553930;27;20503;-67
2023/12/24 14:29:09;;;;;;;117.82;17.00;;;11.10;99.90;;;;;;10549775;27;20054;-68
2023/12/24 14:34:11;;;;;;;113.33;20.27;;;11.10;99.90;;;;;;10555883;27;20055;-67
2023/12/24 14:39:15;;;;;;;70.20;12.40;;;11.00;99.90;;;;;;10553434;27;20105;-66
2023/12/24 14:44:17;;;;;;;90.78;14.60;;;11.10;99.90;;;;;;10553433;27;20124;-66
2023/12/24 14:49:19;;;;;;;17.58;2.72;;;11.00;99.90;;;;;;10552198;27;20070;-65
2023/12/24 14:54:23;;;;;;;36.55;6.63;;;10.90;99.90;;;;;;10551518;27;20039;-64
2023/12/24 14:59:27;;;;;;;102.13;16.77;;;11.00;99.90;;;;;;10543984;27;20600;-64
2023/12/24 15:04:30;;;;;;;1.60;1.58;;;11.00;99.90;;;;;;10553949;27;21053;-64
2023/12/24 15:09:33;;;;;;;0.22;0.22;;;10.90;99.90;;;;;;10557249;27;20047;-64
2023/12/24 15:14:36;;;;;;;110.82;14.52;;;10.90;99.90;;;;;;10555128;27;20481;-64
2023/12/24 15:19:38;;;;;;;;;;;11.00;99.90;;;;;;10556327;27;20081;-65
2023/12/24 15:24:41;;;;;;;120.65;18.02;;;11.10;99.90;;;;;;10558118;27;19920;-64
2023/12/24 15:29:44;;;;;;;131.98;17.70;;;11.10;99.90;;;;;;10556369;27;20807;-63
2023/12/24 15:34:46;;;;;;;87.05;12.80;;;11.10;99.90;;;;;;10567065;27;22824;-65
2023/12/24 15:39:49;;;;;;;137.07;19.37;;;11.20;99.90;;;;;;10551933;27;20066;-64
2023/12/24 15:44:51;;;;;;;97.65;14.30;;;11.00;99.90;;;;;;10558503;27;20879;-64
2023/12/24 15:49:54;;;;;;;100.40;15.40;;;11.20;99.90;;;;;;10557384;27;20089;-64
2023/12/24 15:54:58;;;;;;;;;;;11.10;99.90;;;;;;10559604;27;20051;-64
2023/12/24 16:00:01;;;;;;;;;;;11.00;99.90;;;;;;10557112;27;20753;-64
2023/12/24 16:05:09;;;;;;;96.85;12.65;;;11.10;99.90;;;;;;10552309;27;19935;-66
2023/12/24 16:10:12;;;;;;;85.45;11.50;;;11.10;99.90;;;;;;10551540;27;20118;-65
2023/12/24 16:15:16;;;;;;;113.07;16.23;;;11.10;99.90;;;;;;10554884;28;20513;-65
2023/12/24 16:20:20;;;;;;;90.07;13.02;;;11.10;99.90;;;;;;10561771;28;20526;-65
2023/12/24 16:25:26;;;;;;;89.57;13.98;;;11.00;99.90;;;;;;10550208;28;20513;-64
2023/12/24 16:30:28;;;;;;;71.88;12.55;;;11.10;99.90;;;;;;10551678;28;20043;-65
2023/12/24 16:35:30;;;;;;;72.07;12.45;;;11.10;99.90;;;;;;10557530;28;20207;-65
2023/12/24 16:40:34;;;;;;;96.55;15.68;;;11.10;99.90;;;;;;10556133;28;20163;-64
2023/12/24 16:45:36;;;;;;;85.95;12.90;;;11.20;99.90;;;;;;10546462;27;20215;-65
2023/12/24 16:50:38;;;;;;;73.38;11.07;;;11.10;99.90;;;;;;10550773;28;20054;-64
2023/12/24 16:55:41;;;;;;;74.57;12.50;;;11.20;99.90;;;;;;10551481;28;20084;-65
2023/12/24 17:00:44;;;;;;;73.03;12.98;;;11.00;99.90;;;;;;10547544;28;20067;-65
2023/12/24 17:05:46;;;;;;;69.38;10.02;;;11.10;99.90;;;;;;10548000;28;22458;-66
2023/12/24 17:10:52;;;;;;;86.20;14.73;;;11.20;99.90;;;;;;10549182;28;20067;-66
2023/12/24 17:15:55;;;;;;;54.38;9.93;;;11.20;99.90;;;;;;10549357;28;20089;-66
2023/12/24 17:20:57;;;;;;;77.25;12.95;;;11.30;99.90;;;;;;10558704;27;20089;-66
2023/12/24 17:26:00;;;;;;;90.53;16.15;;;11.20;99.90;;;;;;10562071;27;20500;-65
2023/12/24 17:31:06;;;;;;;65.60;10.40;;;11.20;99.90;;;;;;10565860;27;20124;-65
2023/12/24 17:36:16;;;;;;;65.57;8.27;;;11.30;99.90;;;;;;10567252;27;20050;-66
2023/12/24 17:41:20;;;;;;;66.63;12.55;;;11.40;99.90;;;;;;10566525;27;20094;-64
2023/12/24 17:46:22;;;;;;;65.07;11.20;;;11.30;99.90;;;;;;10566003;27;20100;-65
2023/12/24 17:51:25;;;;;;;68.17;12.37;;;11.30;99.90;;;;;;10557326;27;20106;-63
2023/12/24 17:56:30;;;;;;;74.70;15.60;;;11.30;99.90;;;;;;10560855;27;20048;-64
2023/12/24 18:01:33;;;;;;;78.90;10.85;;;11.30;99.90;;;;;;10566058;27;20047;-64
2023/12/24 18:06:35;;;;;;;;;;;11.30;99.90;;;;;;10550356;27;22673;-65
2023/12/24 18:11:39;;;;;;;87.97;12.55;;;11.30;99.90;;;;;;10556920;27;19930;-65
2023/12/24 18:16:41;;;;;;;73.57;12.05;;;11.20;99.90;;;;;;10555585;27;20707;-64
2023/12/24 18:21:43;;;;;;;70.68;10.65;;;11.20;99.90;;;;;;10562889;27;20074;-64
2023/12/24 18:26:46;;;;;;;62.57;8.47;;;11.20;99.90;;;;;;10557762;27;20048;-64
2023/12/24 18:31:48;;;;;;;59.10;9.45;;;11.20;99.90;;;;;;10557736;27;20937;-64
2023/12/24 18:36:51;;;;;;;68.55;12.32;;;11.30;99.90;;;;;;10558193;27;20050;-64
2023/12/24 18:41:55;;;;;;;67.55;12.13;;;11.30;99.90;;;;;;10558128;27;20055;-66
2023/12/24 18:46:57;;;;;;;59.13;7.18;;;11.30;99.90;;;;;;10549080;27;20078;-64
2023/12/24 18:52:00;;;;;;;58.97;8.33;;;11.30;99.90;;;;;;10556102;27;20085;-65
2023/12/24 18:57:04;;;;;;;75.13;11.67;;;11.30;99.90;;;;;;10546176;27;20725;-64
2023/12/24 19:02:06;;;;;;;74.68;12.63;;;11.30;99.90;;;;;;10546976;27;20697;-65
2023/12/24 19:07:07;;;;;;;62.20;8.82;;;11.30;99.90;;;;;;10553614;27;20109;-65
2023/12/24 19:12:11;;;;;;;85.70;11.75;;;11.30;99.90;;;;;;10556753;27;20055;-65
2023/12/24 19:17:13;;;;;;;67.95;8.13;;;11.20;99.90;;;;;;10553804;27;20163;-65
2023/12/24 19:22:15;;;;;;;65.30;10.10;;;11.40;99.90;;;;;;10549518;27;20051;-65
2023/12/24 19:27:18;;;;;;;79.97;11.38;;;11.40;99.90;;;;;;10551017;27;20862;-66
2023/12/24 19:32:21;;;;;;;72.07;11.95;;;11.30;99.90;;;;;;10556533;27;20828;-69
2023/12/24 19:37:24;;;;;;;71.80;10.97;;;11.40;99.90;;;;;;10546930;27;20051;-64
2023/12/24 19:42:28;;;;;;;;;;;11.40;99.90;;;;;;10549209;27;20051;-65
2023/12/24 19:47:30;;;;;;;88.70;10.98;;;11.30;99.90;;;;;;10551039;27;20350;-65
2023/12/24 19:52:32;;;;;;;91.38;15.77;;;11.30;99.90;;;;;;10547692;27;20050;-65
2023/12/24 19:57:36;;;;;;;94.72;17.35;;;11.30;99.90;;;;;;10548869;27;20051;-64
2023/12/24 20:02:39;;;;;;;90.18;14.40;;;11.30;99.90;;;;;;10553296;27;20050;-64
2023/12/24 20:07:41;;;;;;;;;;;11.30;99.90;;;;;;10541205;27;20088;-65
2023/12/24 20:12:44;;;;;;;89.72;14.77;;;11.30;99.90;;;;;;10545610;27;19931;-66
2023/12/24 20:17:46;;;;;;;60.55;8.13;;;11.40;99.90;;;;;;10550716;28;20100;-65
2023/12/24 20:22:48;;;;;;;63.78;10.02;;;11.40;99.90;;;;;;10542134;28;20075;-65
2023/12/24 20:27:52;;;;;;;83.25;14.15;;;11.40;99.90;;;;;;10552000;28;20071;-65
2023/12/24 20:32:54;;;;;;;75.20;11.88;;;11.40;99.90;;;;;;10559101;28;20146;-64
2023/12/24 20:37:56;;;;;;;92.38;12.98;;;11.40;99.90;;;;;;10564020;28;20039;-65
2023/12/24 20:43:00;;;;;;;73.15;10.45;;;11.30;99.90;;;;;;10553134;28;20050;-65
2023/12/24 20:48:02;;;;;;;72.20;8.90;;;11.30;99.90;;;;;;10551644;28;20093;-65
2023/12/24 20:53:12;;;;;;;58.95;8.00;;;11.30;99.90;;;;;;10560371;28;20047;-64
2023/12/24 20:58:15;;;;;;;67.38;10.75;;;11.40;99.90;;;;;;10560764;27;20502;-65
2023/12/24 21:03:17;;;;;;;79.38;14.10;;;11.40;99.90;;;;;;10567030;27;20051;-64
2023/12/24 21:08:19;;;;;;;92.13;13.55;;;11.40;99.90;;;;;;10562950;27;20082;-66
2023/12/24 21:13:23;;;;;;;85.28;11.88;;;11.40;99.90;;;;;;10557921;27;20407;-66
2023/12/24 21:18:25;;;;;;;70.93;13.02;;;11.40;99.90;;;;;;10569194;27;20054;-66
2023/12/24 21:23:27;;;;;;;56.20;7.72;;;11.40;99.90;;;;;;10564786;27;20364;-66
2023/12/24 21:28:30;;;;;;;57.80;8.57;;;11.40;99.90;;;;;;10568257;27;20039;-65
2023/12/24 21:33:32;;;;;;;63.78;10.90;;;11.50;99.90;;;;;;10562766;27;20121;-65
2023/12/24 21:38:36;;;;;;;69.72;10.88;;;11.30;99.90;;;;;;10560784;27;20055;-63
2023/12/24 21:43:40;;;;;;;70.18;10.57;;;11.50;99.90;;;;;;10541524;27;20138;-65
2023/12/24 21:48:42;;;;;;;74.90;13.05;;;11.30;99.90;;;;;;10550467;27;20051;-65
2023/12/24 21:53:44;;;;;;;61.00;10.65;;;11.40;99.90;;;;;;10547131;27;20050;-64
2023/12/24 21:58:48;;;;;;;57.72;10.98;;;11.50;99.90;;;;;;10552287;27;20152;-65
2023/12/24 22:03:50;;;;;;;55.97;8.00;;;11.40;99.90;;;;;;10555324;27;20786;-65
2023/12/24 22:08:52;;;;;;;57.80;9.68;;;11.50;99.90;;;;;;10565540;27;20144;-65
2023/12/24 22:13:55;;;;;;;70.57;11.47;;;11.40;99.90;;;;;;10562452;27;20426;-65
2023/12/24 22:18:57;;;;;;;74.50;12.18;;;11.50;99.90;;;;;;10568760;27;20073;-64
2023/12/24 22:23:59;;;;;;;65.88;10.25;;;11.40;99.90;;;;;;10564233;27;20111;-64
2023/12/24 22:29:03;;;;;;;65.05;11.77;;;11.30;99.90;;;;;;10567058;27;20050;-64
2023/12/24 22:34:06;;;;;;;84.88;12.95;;;11.30;99.90;;;;;;10568781;27;20050;-64
2023/12/24 22:39:10;;;;;;;73.13;11.43;;;11.30;99.90;;;;;;10563697;27;20052;-64
2023/12/24 22:44:13;;;;;;;59.15;8.75;;;11.30;99.90;;;;;;10549538;27;20786;-64
2023/12/24 22:49:15;;;;;;;66.22;11.50;;;11.30;99.90;;;;;;10555329;27;20127;-64
2023/12/24 22:54:17;;;;;;;71.68;10.65;;;11.30;99.90;;;;;;10565018;27;20055;-65
2023/12/24 22:59:20;;;;;;;73.45;10.18;;;11.20;99.90;;;;;;10565579;27;20040;-66
2023/12/24 23:04:22;;;;;;;61.97;10.70;;;11.20;99.90;;;;;;10562735;27;20047;-65
2023/12/24 23:09:26;;;;;;;78.38;12.60;;;11.30;99.90;;;;;;10567628;27;20147;-65
2023/12/24 23:14:32;;;;;;;58.92;10.85;;;11.20;99.90;;;;;;10560517;27;20654;-64
2023/12/24 23:19:34;;;;;;;48.72;7.65;;;11.30;99.90;;;;;;10568637;27;20072;-65
2023/12/24 23:24:37;;;;;;;77.85;11.15;;;11.30;99.90;;;;;;10568605;27;20561;-64
2023/12/24 23:29:41;;;;;;;68.90;9.23;;;11.20;99.90;;;;;;10559332;27;20043;-65
2023/12/24 23:34:46;;;;;;;60.47;8.30;;;11.30;99.90;;;;;;10554552;27;20047;-65
2023/12/24 23:39:48;;;;;;;83.43;13.48;;;11.40;99.90;;;;;;10556593;27;20178;-67
2023/12/24 23:44:52;;;;;;;76.15;12.40;;;11.20;99.90;;;;;;10552489;27;20050;-64
2023/12/24 23:49:54;;;;;;;59.65;9.45;;;11.20;99.90;;;;;;10556525;27;20048;-65
2023/12/24 23:54:56;;;;;;;73.10;9.98;;;11.20;99.90;;;;;;10553659;27;20148;-65
2023/12/24 23:59:59;;;;;;;65.05;11.70;;;11.40;99.90;;;;;;10563641;27;20536;-65
